Time;durP1;ratioP1;P1;durP2;ratioP2;P2;SDS_P1;SDS_P2;PMS_P1;PMS_P2;Temp;Humidity;BMP_temperature;BMP_pressure;BME280_temperature;BME280_humidity;BME280_pressure;Samples;Min_cycle;Max_cycle;Signal;HPM_P1;HPM_P2
2022/01/26 00:07:52;;;;;;;83.97;38.80;;;3.50;99.90;;;;;;4942172;28;20049;-90
2022/01/26 00:10:23;;;;;;;95.60;42.05;;;3.50;99.90;;;;;;4920313;28;20063;-87
2022/01/26 00:12:49;;;;;;;86.93;37.25;;;3.60;99.90;;;;;;4950462;28;20047;-89
2022/01/26 00:15:15;;;;;;;84.70;40.22;;;3.50;99.90;;;;;;4930213;28;20045;-90
2022/01/26 00:17:41;;;;;;;89.70;39.33;;;3.50;99.90;;;;;;4929848;28;20418;-89
2022/01/26 00:38:43;;;;;;;92.30;38.75;;;3.30;99.90;;;;;;4948604;28;20045;-90
2022/01/26 00:41:20;;;;;;;91.25;40.05;;;3.40;99.90;;;;;;4945493;28;20206;-89
2022/01/26 00:43:52;;;;;;;93.47;40.05;;;3.30;99.90;;;;;;4936971;28;20306;-89
2022/01/26 00:46:18;;;;;;;91.75;38.08;;;3.30;99.90;;;;;;4949194;28;20741;-89
2022/01/26 00:48:45;;;;;;;94.07;39.08;;;3.30;99.90;;;;;;4913915;28;20111;-89
2022/01/26 00:51:15;;;;;;;96.88;40.03;;;3.30;99.90;;;;;;4947807;28;20056;-89
2022/01/26 00:53:45;;;;;;;95.82;41.00;;;3.30;99.90;;;;;;4952564;28;20072;-89
2022/01/26 00:56:12;;;;;;;93.10;39.90;;;3.30;99.90;;;;;;4911524;28;20129;-90
2022/01/26 00:58:38;;;;;;;93.95;40.22;;;3.30;99.90;;;;;;4947925;28;20809;-90
2022/01/26 01:01:05;;;;;;;101.82;42.33;;;3.30;99.90;;;;;;4930954;28;20045;-90
2022/01/26 01:03:33;;;;;;;103.07;40.85;;;3.30;99.90;;;;;;4936318;28;20821;-89
2022/01/26 01:06:06;;;;;;;99.13;38.28;;;3.30;99.90;;;;;;4937715;28;20522;-89
2022/01/26 01:08:33;;;;;;;105.35;42.50;;;3.30;99.90;;;;;;4937078;28;20045;-90
2022/01/26 01:10:59;;;;;;;104.85;41.67;;;3.20;99.90;;;;;;4940409;28;20399;-90
2022/01/26 01:13:34;;;;;;;96.95;38.25;;;3.20;99.90;;;;;;4917027;28;20316;-90
2022/01/26 01:16:04;;;;;;;94.93;39.10;;;3.20;99.90;;;;;;4934091;28;20668;-90
2022/01/26 01:31:28;;;;;;;99.75;40.20;;;3.10;99.90;;;;;;4947841;28;20525;-90
2022/01/26 01:33:53;;;;;;;101.03;38.25;;;3.10;99.90;;;;;;4947878;28;20059;-89
2022/01/26 01:36:21;;;;;;;100.45;38.17;;;3.10;99.90;;;;;;4947571;28;20050;-90
2022/01/26 01:38:47;;;;;;;108.05;39.65;;;3.10;99.90;;;;;;4930203;28;20790;-89
2022/01/26 01:41:15;;;;;;;101.60;39.33;;;3.10;99.90;;;;;;4962664;28;20468;-90
2022/01/26 01:43:43;;;;;;;98.28;38.90;;;3.10;99.90;;;;;;4950399;28;20426;-90
2022/01/26 01:46:12;;;;;;;100.90;37.80;;;3.00;99.90;;;;;;4946564;28;20049;-88
2022/01/26 01:48:38;;;;;;;97.13;38.85;;;3.10;99.90;;;;;;4944112;28;20075;-89
2022/01/26 01:51:08;;;;;;;103.43;41.17;;;3.00;99.90;;;;;;4935781;28;20045;-89
2022/01/26 01:53:39;;;;;;;105.68;40.72;;;2.90;99.90;;;;;;4924065;28;20053;-89
2022/01/26 01:56:08;;;;;;;107.18;38.17;;;3.00;99.90;;;;;;4921826;28;20045;-89
2022/01/26 01:58:34;;;;;;;113.97;42.45;;;3.00;99.90;;;;;;4947799;28;20052;-88
2022/01/26 02:01:00;;;;;;;106.00;40.63;;;3.00;99.90;;;;;;4949891;28;20653;-88
2022/01/26 02:03:26;;;;;;;114.78;41.50;;;3.00;99.90;;;;;;4929963;28;20694;-88
2022/01/26 02:05:52;;;;;;;109.55;40.75;;;2.90;99.90;;;;;;4948112;28;20903;-89
2022/01/26 02:08:19;;;;;;;105.15;38.72;;;3.00;99.90;;;;;;4917538;28;20548;-89
2022/01/26 02:10:45;;;;;;;104.25;38.05;;;2.90;99.90;;;;;;4950590;28;20088;-88
2022/01/26 02:13:35;;;;;;;107.93;39.92;;;3.00;99.90;;;;;;4933800;28;20091;-89
2022/01/26 02:16:18;;;;;;;102.65;39.33;;;2.90;99.90;;;;;;4944145;28;20108;-87
2022/01/26 02:19:18;;;;;;;102.13;37.72;;;2.90;99.90;;;;;;4928830;28;20053;-90
2022/01/26 02:59:49;;;;;;;99.22;35.88;;;2.70;99.90;;;;;;4944427;28;20488;-90
2022/01/26 03:04:50;;;;;;;102.25;34.58;;;2.70;99.90;;;;;;4947474;28;20077;-88
2022/01/26 03:07:24;;;;;;;102.65;36.15;;;2.70;99.90;;;;;;4909344;28;20491;-88
2022/01/26 03:10:03;;;;;;;101.15;37.55;;;2.70;99.90;;;;;;4930360;28;20537;-88
2022/01/26 03:12:42;;;;;;;103.57;34.90;;;2.70;99.90;;;;;;4934452;28;20041;-88
2022/01/26 03:18:55;;;;;;;105.25;36.50;;;2.70;99.90;;;;;;4911519;28;20041;-89
2022/01/26 03:20:59;;;;;;;95.57;34.47;;;2.70;99.90;;;;;;4927862;28;20854;-88
2022/01/26 03:31:58;;;;;;;97.95;34.38;;;2.70;99.90;;;;;;4940249;28;20430;-90
2022/01/26 03:34:16;;;;;;;95.53;33.10;;;2.70;99.90;;;;;;4951469;28;20128;-89
2022/01/26 03:36:53;;;;;;;87.70;33.80;;;2.70;99.90;;;;;;4945772;28;20881;-89
2022/01/26 03:39:21;;;;;;;99.90;34.95;;;2.70;99.90;;;;;;4920800;28;20131;-89
2022/01/26 03:41:52;;;;;;;86.70;30.45;;;2.70;99.90;;;;;;4934065;28;20348;-90
2022/01/26 03:44:21;;;;;;;89.13;32.58;;;2.70;99.90;;;;;;4969427;28;20049;-90
2022/01/26 03:46:49;;;;;;;87.85;32.28;;;2.70;99.90;;;;;;4928414;28;20061;-88
2022/01/26 03:49:15;;;;;;;96.22;31.25;;;2.70;99.90;;;;;;4941465;28;20041;-87
2022/01/26 03:51:42;;;;;;;92.75;32.25;;;2.60;99.90;;;;;;4940714;28;20098;-88
2022/01/26 03:54:09;;;;;;;91.50;32.05;;;2.70;99.90;;;;;;4944523;28;20064;-88
2022/01/26 03:56:35;;;;;;;97.10;32.40;;;2.60;99.90;;;;;;4951959;28;20103;-88
2022/01/26 03:59:02;;;;;;;84.40;30.67;;;2.60;99.90;;;;;;4943324;28;20477;-88
2022/01/26 04:01:28;;;;;;;88.78;31.83;;;2.60;99.90;;;;;;4943145;28;20079;-88
2022/01/26 04:03:54;;;;;;;82.68;29.33;;;2.60;99.90;;;;;;4929071;28;20345;-88
2022/01/26 04:06:20;;;;;;;86.32;29.40;;;2.50;99.90;;;;;;4939597;28;20090;-88
2022/01/26 04:08:46;;;;;;;87.97;30.80;;;2.50;99.90;;;;;;4944882;28;20455;-88
2022/01/26 04:11:37;;;;;;;87.35;32.78;;;2.60;99.90;;;;;;4939538;28;20099;-89
2022/01/26 04:14:15;;;;;;;82.82;30.65;;;2.60;99.90;;;;;;4947446;28;20084;-89
2022/01/26 04:16:43;;;;;;;84.38;29.63;;;2.60;99.90;;;;;;4945474;28;20057;-88
2022/01/26 04:19:09;;;;;;;80.43;30.70;;;2.60;99.90;;;;;;4922231;28;20798;-88
2022/01/26 04:21:49;;;;;;;84.93;30.65;;;2.60;99.90;;;;;;4941433;28;20083;-88
2022/01/26 04:24:24;;;;;;;86.97;29.40;;;2.60;99.90;;;;;;4944303;28;20453;-88
2022/01/26 04:27:06;;;;;;;84.38;29.38;;;2.60;99.90;;;;;;4944686;28;20056;-88
2022/01/26 04:29:34;;;;;;;81.70;29.65;;;2.60;99.90;;;;;;4943094;28;20524;-89
2022/01/26 04:32:01;;;;;;;78.72;29.73;;;2.60;99.90;;;;;;4927108;28;20617;-88
2022/01/26 04:34:28;;;;;;;86.40;31.67;;;2.60;99.90;;;;;;4908502;28;20049;-90
2022/01/26 04:37:02;;;;;;;94.70;31.80;;;2.60;99.90;;;;;;4945394;28;20045;-88
2022/01/26 04:39:34;;;;;;;89.72;31.88;;;2.50;99.90;;;;;;4926354;28;20060;-88
2022/01/26 04:42:05;;;;;;;89.40;31.50;;;2.50;99.90;;;;;;4928069;28;20045;-90
2022/01/26 04:44:46;;;;;;;85.55;31.20;;;2.40;99.90;;;;;;4914909;28;20042;-87
2022/01/26 04:47:12;;;;;;;94.60;31.42;;;2.50;99.90;;;;;;4917664;28;20051;-89
2022/01/26 04:49:38;;;;;;;99.97;33.20;;;2.50;99.90;;;;;;4929960;28;20414;-89
2022/01/26 04:52:04;;;;;;;90.50;31.55;;;2.40;99.90;;;;;;4933244;28;20087;-89
2022/01/26 04:54:30;;;;;;;94.53;32.03;;;2.40;99.90;;;;;;4951432;28;20894;-90
2022/01/26 04:56:56;;;;;;;92.53;30.33;;;2.40;99.90;;;;;;4947951;28;20072;-87
2022/01/26 04:59:22;;;;;;;97.47;32.20;;;2.40;99.90;;;;;;4946815;28;20045;-89
2022/01/26 05:01:48;;;;;;;90.85;31.10;;;2.40;99.90;;;;;;4931092;28;20049;-89
2022/01/26 05:04:16;;;;;;;94.65;32.60;;;2.30;99.90;;;;;;4945201;28;20096;-90
2022/01/26 05:06:42;;;;;;;90.07;31.52;;;2.40;99.90;;;;;;4911040;28;20509;-89
2022/01/26 05:09:07;;;;;;;84.90;29.65;;;2.30;99.90;;;;;;4902096;28;20045;-88
2022/01/26 05:11:37;;;;;;;82.75;29.02;;;2.30;99.90;;;;;;4925365;28;20045;-89
2022/01/26 05:14:04;;;;;;;95.55;31.77;;;2.30;99.90;;;;;;4933796;28;20526;-88
2022/01/26 05:16:30;;;;;;;91.93;31.73;;;2.30;99.90;;;;;;4950254;28;20057;-89
2022/01/26 05:18:57;;;;;;;87.45;29.17;;;2.40;99.90;;;;;;4949652;28;20045;-89
2022/01/26 05:21:24;;;;;;;96.72;30.60;;;2.30;99.90;;;;;;4948838;28;20048;-90
2022/01/26 05:23:51;;;;;;;87.57;29.90;;;2.30;99.90;;;;;;4932975;28;20080;-88
2022/01/26 05:26:17;;;;;;;90.88;29.30;;;2.30;99.90;;;;;;4958724;28;20049;-90
2022/01/26 05:28:43;;;;;;;83.32;28.55;;;2.30;99.90;;;;;;4927865;28;20698;-89
2022/01/26 05:31:11;;;;;;;88.10;29.73;;;2.40;99.90;;;;;;4957961;28;20431;-90
2022/01/26 05:33:37;;;;;;;89.20;31.20;;;2.30;99.90;;;;;;4949414;28;20056;-91
2022/01/26 05:36:03;;;;;;;93.03;31.25;;;2.30;99.90;;;;;;4914120;28;20059;-89
2022/01/26 05:38:29;;;;;;;82.75;29.45;;;2.30;99.90;;;;;;4907706;28;20033;-89
2022/01/26 05:40:57;;;;;;;88.35;30.13;;;2.40;99.90;;;;;;4944207;28;20091;-89
2022/01/26 05:43:23;;;;;;;92.03;29.48;;;2.40;99.90;;;;;;4921574;28;20057;-88
2022/01/26 05:45:53;;;;;;;93.97;30.85;;;2.40;99.90;;;;;;4907895;28;20048;-88
2022/01/26 05:48:19;;;;;;;91.05;31.27;;;2.40;99.90;;;;;;4920444;28;20530;-89
2022/01/26 05:50:52;;;;;;;91.70;29.63;;;2.40;99.90;;;;;;4916192;28;20714;-90
2022/01/26 05:53:23;;;;;;;91.35;30.02;;;2.30;99.90;;;;;;4941204;28;20123;-90
2022/01/26 05:55:55;;;;;;;95.00;30.40;;;2.30;99.90;;;;;;4913865;28;20042;-88
2022/01/26 05:58:21;;;;;;;88.13;27.58;;;2.40;99.90;;;;;;4927275;28;20471;-88
2022/01/26 06:00:50;;;;;;;87.13;29.63;;;2.40;99.90;;;;;;4923299;28;20068;-90
2022/01/26 06:03:18;;;;;;;91.05;31.00;;;2.40;99.90;;;;;;4925657;28;20064;-89
2022/01/26 06:05:43;;;;;;;88.82;29.35;;;2.30;99.90;;;;;;4935155;28;20472;-89
2022/01/26 06:08:09;;;;;;;92.88;30.70;;;2.40;99.90;;;;;;4922467;28;20684;-89
2022/01/26 06:10:35;;;;;;;87.40;29.83;;;2.40;99.90;;;;;;4923057;28;20097;-90
2022/01/26 06:13:01;;;;;;;88.97;30.63;;;2.40;99.90;;;;;;4940662;28;20049;-88
2022/01/26 06:15:27;;;;;;;92.50;30.73;;;2.40;99.90;;;;;;4937114;28;20491;-88
2022/01/26 06:17:53;;;;;;;96.90;30.30;;;2.40;99.90;;;;;;4943685;28;20048;-88
2022/01/26 06:20:19;;;;;;;86.15;29.30;;;2.40;99.90;;;;;;4952931;28;20050;-88
2022/01/26 06:22:45;;;;;;;91.65;29.60;;;2.40;99.90;;;;;;4939560;28;20534;-88
2022/01/26 06:25:11;;;;;;;81.88;28.60;;;2.40;99.90;;;;;;4924332;28;20122;-88
2022/01/26 06:27:38;;;;;;;86.93;29.92;;;2.40;99.90;;;;;;4953417;28;20045;-88
2022/01/26 06:30:06;;;;;;;85.97;29.65;;;2.40;99.90;;;;;;4956312;28;20512;-90
2022/01/26 06:32:32;;;;;;;80.03;26.77;;;2.40;99.90;;;;;;4952236;28;20053;-88
2022/01/26 06:34:58;;;;;;;77.10;27.92;;;2.50;99.90;;;;;;4946180;28;20907;-89
2022/01/26 06:37:24;;;;;;;78.55;26.65;;;2.40;99.90;;;;;;4939533;28;20077;-88
2022/01/26 06:39:53;;;;;;;75.95;26.48;;;2.50;99.90;;;;;;4954862;28;20351;-89
2022/01/26 06:42:24;;;;;;;76.03;26.63;;;2.50;99.90;;;;;;4940653;28;20490;-88
2022/01/26 06:47:54;;;;;;;74.80;25.52;;;2.50;99.90;;;;;;4927670;28;20200;-88
2022/01/26 06:50:19;;;;;;;72.13;24.40;;;2.50;99.90;;;;;;4921894;28;21022;-89
2022/01/26 06:52:49;;;;;;;67.28;23.08;;;2.50;99.90;;;;;;4946203;28;20094;-89
2022/01/26 06:55:16;;;;;;;66.35;23.60;;;2.50;99.90;;;;;;4929791;28;20064;-89
2022/01/26 06:57:44;;;;;;;71.10;23.55;;;2.50;99.90;;;;;;4945418;28;20562;-88
2022/01/26 07:00:12;;;;;;;66.88;23.33;;;2.50;99.90;;;;;;4937342;28;22773;-87
2022/01/26 07:02:39;;;;;;;67.55;24.08;;;2.50;99.90;;;;;;4941900;28;20406;-87
2022/01/26 07:05:10;;;;;;;69.50;23.48;;;2.50;99.90;;;;;;4943237;28;20414;-88
2022/01/26 07:07:37;;;;;;;59.70;21.55;;;2.50;99.90;;;;;;4945368;28;21239;-87
2022/01/26 07:10:04;;;;;;;53.80;20.33;;;2.50;99.90;;;;;;4918220;28;20885;-88
2022/01/26 07:12:30;;;;;;;68.47;22.88;;;2.50;99.90;;;;;;4944014;28;20596;-89
2022/01/26 07:22:54;;;;;;;50.97;18.98;;;2.60;99.90;;;;;;4921215;28;20049;-86
2022/01/26 07:25:19;;;;;;;56.42;20.58;;;2.60;99.90;;;;;;4939269;28;20084;-86
2022/01/26 07:27:45;;;;;;;57.25;21.70;;;2.60;99.90;;;;;;4937024;28;20771;-84
2022/01/26 07:30:12;;;;;;;60.60;21.75;;;2.60;99.90;;;;;;4938227;28;20069;-85
2022/01/26 07:32:38;;;;;;;59.72;21.95;;;2.60;99.90;;;;;;4921384;28;20432;-90
2022/01/26 07:35:07;;;;;;;61.17;22.98;;;2.60;99.90;;;;;;4934873;28;20414;-87
2022/01/26 07:37:32;;;;;;;66.32;23.58;;;2.60;99.90;;;;;;4932080;28;20048;-87
2022/01/26 07:40:06;;;;;;;61.92;23.42;;;2.60;99.90;;;;;;4925170;28;20068;-89
2022/01/26 07:42:43;;;;;;;;;;;2.60;99.90;;;;;;4935865;28;20436;-87
2022/01/26 07:45:11;;;;;;;65.70;23.80;;;2.60;99.90;;;;;;4948500;28;20325;-88
2022/01/26 07:47:38;;;;;;;66.07;25.13;;;2.60;99.90;;;;;;4940298;28;20908;-89
2022/01/26 07:50:11;;;;;;;67.15;25.75;;;2.60;99.90;;;;;;4927310;28;20040;-87
2022/01/26 07:52:39;;;;;;;71.50;26.98;;;2.70;99.90;;;;;;4915102;28;21120;-88
2022/01/26 07:55:07;;;;;;;76.35;27.85;;;2.70;99.90;;;;;;4921781;28;20895;-88
2022/01/26 07:57:33;;;;;;;80.63;31.33;;;2.70;99.90;;;;;;4944002;28;20041;-89
2022/01/26 07:59:59;;;;;;;79.50;30.50;;;2.70;99.90;;;;;;4940792;28;20292;-88
2022/01/26 08:02:25;;;;;;;82.90;30.77;;;2.70;99.90;;;;;;4920555;28;20049;-89
2022/01/26 08:04:50;;;;;;;79.18;29.83;;;2.70;99.90;;;;;;4941301;28;20049;-89
2022/01/26 08:07:16;;;;;;;78.47;30.88;;;2.70;99.90;;;;;;4934863;28;20049;-87
2022/01/26 08:09:44;;;;;;;76.47;30.63;;;2.80;99.90;;;;;;4915077;28;20529;-88
2022/01/26 08:12:14;;;;;;;82.93;30.38;;;2.70;99.90;;;;;;4908200;28;20049;-89
2022/01/26 08:14:41;;;;;;;89.55;32.47;;;2.80;99.90;;;;;;4927650;28;20050;-88
2022/01/26 08:17:08;;;;;;;82.93;32.22;;;2.80;99.90;;;;;;4917147;28;20052;-87
2022/01/26 08:19:35;;;;;;;86.55;32.80;;;2.80;99.90;;;;;;4941888;28;20049;-87
2022/01/26 08:22:02;;;;;;;94.80;35.28;;;2.80;99.90;;;;;;4939966;28;20114;-88
2022/01/26 08:24:29;;;;;;;92.30;35.42;;;2.70;99.90;;;;;;4942295;28;20041;-88
2022/01/26 08:26:57;;;;;;;90.70;34.30;;;2.80;99.90;;;;;;4941245;28;20043;-89
2022/01/26 08:29:39;;;;;;;97.90;36.92;;;2.80;99.90;;;;;;4925214;28;20728;-85
2022/01/26 08:32:06;;;;;;;92.18;35.05;;;2.80;99.90;;;;;;4938393;28;20757;-87
2022/01/26 08:34:32;;;;;;;99.75;38.08;;;2.80;99.90;;;;;;4892964;28;20057;-85
2022/01/26 08:36:57;;;;;;;92.72;35.88;;;2.90;99.90;;;;;;4908335;28;20212;-88
2022/01/26 08:39:23;;;;;;;106.68;40.88;;;2.90;99.90;;;;;;4933036;28;20525;-90
2022/01/26 08:41:49;;;;;;;100.75;38.10;;;3.00;99.90;;;;;;4924066;28;20380;-90
2022/01/26 08:44:15;;;;;;;105.15;40.63;;;2.90;99.90;;;;;;4916387;28;20390;-90
2022/01/26 08:46:44;;;;;;;105.53;41.05;;;3.00;99.90;;;;;;4948533;28;20379;-89
2022/01/26 08:49:10;;;;;;;107.35;40.13;;;3.00;99.90;;;;;;4935976;28;20081;-90
2022/01/26 08:51:36;;;;;;;105.82;41.03;;;3.00;99.90;;;;;;4916157;28;20118;-85
2022/01/26 08:54:03;;;;;;;114.95;43.47;;;3.00;99.90;;;;;;4928981;28;20045;-90
2022/01/26 08:56:29;;;;;;;114.45;45.08;;;3.10;99.90;;;;;;4939474;28;20049;-87
2022/01/26 08:58:55;;;;;;;108.00;41.20;;;3.10;99.90;;;;;;4941637;28;20125;-88
2022/01/26 09:01:21;;;;;;;120.13;46.33;;;3.10;99.90;;;;;;4940840;28;20477;-88
2022/01/26 09:03:47;;;;;;;113.70;46.50;;;3.20;99.90;;;;;;4945072;28;20463;-88
2022/01/26 09:06:13;;;;;;;120.68;46.85;;;3.10;99.90;;;;;;4932374;28;20100;-89
2022/01/26 09:08:42;;;;;;;117.07;47.60;;;3.20;99.90;;;;;;4923146;28;20044;-89
2022/01/26 09:11:08;;;;;;;119.70;47.35;;;3.20;99.90;;;;;;4916844;28;20045;-88
2022/01/26 09:13:35;;;;;;;121.10;47.95;;;3.20;99.90;;;;;;4946007;28;20495;-88
2022/01/26 09:16:04;;;;;;;125.07;49.47;;;3.20;99.90;;;;;;4944715;28;20430;-88
2022/01/26 09:18:49;;;;;;;124.30;51.00;;;3.20;99.90;;;;;;4939931;28;20298;-88
2022/01/26 09:21:15;;;;;;;128.07;51.17;;;3.20;99.90;;;;;;4939940;28;20433;-89
2022/01/26 09:23:41;;;;;;;127.85;53.55;;;3.30;99.90;;;;;;4927520;28;20045;-89
2022/01/26 09:26:06;;;;;;;126.45;49.55;;;3.30;99.90;;;;;;4924977;28;20123;-88
2022/01/26 09:28:32;;;;;;;129.63;50.00;;;3.30;99.90;;;;;;4928650;28;20517;-88
2022/01/26 09:30:58;;;;;;;134.32;54.72;;;3.30;99.90;;;;;;4913513;28;20572;-89
2022/01/26 09:33:24;;;;;;;134.93;53.63;;;3.30;99.90;;;;;;4915271;28;20061;-89
2022/01/26 09:35:50;;;;;;;128.20;52.83;;;3.40;99.90;;;;;;4932241;28;20049;-89
2022/01/26 09:38:19;;;;;;;135.18;57.13;;;3.40;99.90;;;;;;4933742;28;20056;-89
2022/01/26 09:40:47;;;;;;;128.30;53.60;;;3.40;99.90;;;;;;4926616;28;20057;-89
2022/01/26 09:43:14;;;;;;;139.30;58.13;;;3.40;99.90;;;;;;4937922;28;20055;-89
2022/01/26 09:45:40;;;;;;;135.02;57.45;;;3.40;99.90;;;;;;4928901;28;20570;-88
2022/01/26 09:48:09;;;;;;;135.77;55.38;;;3.50;99.90;;;;;;4925899;28;20051;-90
2022/01/26 09:50:35;;;;;;;143.15;54.33;;;3.50;99.90;;;;;;4927147;28;20049;-89
2022/01/26 09:53:04;;;;;;;136.85;54.00;;;3.50;99.90;;;;;;4948237;28;20049;-91
2022/01/26 09:55:30;;;;;;;145.15;58.97;;;3.50;99.90;;;;;;4941136;28;20472;-87
2022/01/26 09:57:59;;;;;;;144.27;60.58;;;3.50;99.90;;;;;;4947276;28;20085;-89
2022/01/26 10:00:29;;;;;;;146.65;58.75;;;3.60;99.90;;;;;;4928718;28;20860;-88
2022/01/26 10:02:57;;;;;;;155.20;64.38;;;3.60;99.90;;;;;;4927189;28;20904;-88
2022/01/26 10:05:25;;;;;;;179.98;61.25;;;3.60;99.90;;;;;;4936569;28;20336;-90
2022/01/26 10:19:10;;;;;;;148.90;60.80;;;3.70;99.90;;;;;;4928011;28;20691;-89
2022/01/26 10:21:49;;;;;;;155.55;62.72;;;3.70;99.90;;;;;;4945764;28;20596;-89
2022/01/26 10:24:16;;;;;;;150.50;62.33;;;3.70;99.90;;;;;;4933164;28;20214;-87
2022/01/26 10:26:49;;;;;;;147.45;59.55;;;3.70;99.90;;;;;;4944835;28;20460;-89
2022/01/26 10:29:17;;;;;;;146.50;57.17;;;3.80;99.90;;;;;;4945042;28;20057;-90
2022/01/26 10:31:42;;;;;;;142.23;57.28;;;3.80;99.90;;;;;;4945230;28;20293;-91
2022/01/26 10:34:10;;;;;;;152.98;62.10;;;3.80;99.90;;;;;;4929295;28;20053;-88
2022/01/26 10:37:08;;;;;;;145.15;60.63;;;3.80;99.90;;;;;;4939006;28;20225;-90
2022/01/26 10:39:53;;;;;;;148.63;61.58;;;3.80;99.90;;;;;;4927243;28;20461;-90
2022/01/26 10:42:19;;;;;;;141.30;56.28;;;3.80;99.90;;;;;;4937182;28;20423;-88
2022/01/26 10:45:11;;;;;;;146.95;56.72;;;3.80;99.90;;;;;;4911819;28;20159;-91
2022/01/26 10:47:41;;;;;;;149.35;60.42;;;3.90;99.90;;;;;;4937538;28;20038;-89
2022/01/26 10:53:11;;;;;;;144.63;61.47;;;4.00;99.90;;;;;;4947985;28;20407;-89
2022/01/26 10:55:38;;;;;;;138.90;58.35;;;4.00;99.90;;;;;;4943773;28;20657;-89
2022/01/26 10:58:07;;;;;;;141.20;58.63;;;4.00;99.90;;;;;;4948330;28;20438;-89
2022/01/26 11:00:43;;;;;;;147.15;60.28;;;4.00;99.90;;;;;;4945223;28;20932;-89
2022/01/26 11:03:10;;;;;;;145.57;60.53;;;4.00;99.90;;;;;;4942649;28;20541;-88
2022/01/26 11:05:36;;;;;;;139.10;60.08;;;4.10;99.90;;;;;;4915257;28;20159;-90
2022/01/26 11:08:03;;;;;;;141.63;60.03;;;4.10;99.90;;;;;;4925669;28;20054;-89
2022/01/26 11:10:35;;;;;;;130.82;57.85;;;4.10;99.90;;;;;;4933977;28;20800;-89
2022/01/26 11:13:03;;;;;;;134.30;55.92;;;4.10;99.90;;;;;;4939648;28;20074;-89
2022/01/26 11:15:29;;;;;;;138.60;58.25;;;4.20;99.90;;;;;;4929000;28;20049;-89
2022/01/26 11:18:19;;;;;;;136.43;58.17;;;4.20;99.90;;;;;;4944895;28;20103;-86
2022/01/26 11:20:51;;;;;;;126.22;56.53;;;4.30;99.90;;;;;;4938808;28;20940;-91
2022/01/26 11:23:32;;;;;;;125.50;56.15;;;4.30;99.90;;;;;;4980715;28;20672;-88
2022/01/26 11:25:58;;;;;;;131.98;58.20;;;4.30;99.90;;;;;;4965451;28;20043;-90
2022/01/26 11:28:27;;;;;;;126.15;56.60;;;4.30;99.90;;;;;;4963456;28;20044;-88
2022/01/26 11:30:58;;;;;;;123.07;53.13;;;4.30;99.90;;;;;;4940811;28;20161;-89
2022/01/26 11:33:27;;;;;;;121.00;50.28;;;4.40;99.90;;;;;;4958847;28;20083;-88
2022/01/26 11:35:56;;;;;;;113.57;51.10;;;4.30;99.90;;;;;;4953500;28;20828;-89
2022/01/26 11:47:30;;;;;;;112.85;50.97;;;4.40;99.90;;;;;;4957540;28;20470;-89
2022/01/26 11:50:30;;;;;;;114.60;47.80;;;4.40;99.90;;;;;;4936169;28;20053;-90
2022/01/26 11:53:06;;;;;;;105.38;45.72;;;4.30;99.90;;;;;;4907517;28;20281;-87
2022/01/26 11:55:52;;;;;;;110.03;50.85;;;4.30;99.90;;;;;;4945909;28;20495;-88
2022/01/26 11:58:27;;;;;;;109.05;44.60;;;4.30;99.90;;;;;;4939736;28;20049;-88
2022/01/26 12:01:12;;;;;;;111.80;50.63;;;4.40;99.90;;;;;;4959648;28;20748;-89
2022/01/26 12:03:45;;;;;;;108.60;47.65;;;4.30;99.90;;;;;;4942295;28;20894;-87
2022/01/26 12:06:21;;;;;;;102.68;46.92;;;4.40;99.90;;;;;;4944587;28;20149;-89
2022/01/26 12:08:49;;;;;;;109.03;48.53;;;4.40;99.90;;;;;;4959393;28;20592;-88
2022/01/26 12:11:16;;;;;;;104.95;48.45;;;4.40;99.90;;;;;;4926428;28;20053;-87
2022/01/26 12:13:44;;;;;;;105.75;48.13;;;4.40;99.90;;;;;;4941056;28;20049;-89
2022/01/26 12:16:15;;;;;;;105.43;49.03;;;4.40;99.90;;;;;;4949801;28;20048;-89
2022/01/26 12:18:53;;;;;;;106.72;45.15;;;4.40;99.90;;;;;;4921489;28;20037;-88
2022/01/26 12:36:32;;;;;;;99.97;46.28;;;4.50;99.90;;;;;;4954425;28;20072;-89
2022/01/26 12:38:33;;;;;;;91.90;42.50;;;4.60;99.90;;;;;;4935115;28;20570;-87
2022/01/26 12:43:48;;;;;;;92.70;45.33;;;4.50;99.90;;;;;;4943997;28;20410;-88
2022/01/26 12:46:29;;;;;;;95.90;43.17;;;4.60;99.90;;;;;;4945210;28;20869;-85
2022/01/26 12:48:59;;;;;;;101.68;47.20;;;4.60;99.90;;;;;;4950797;28;20345;-89
2022/01/26 12:51:26;;;;;;;93.60;42.22;;;4.60;99.90;;;;;;4946320;28;20041;-88
2022/01/26 12:54:02;;;;;;;98.18;46.78;;;4.50;99.90;;;;;;4933551;28;20056;-89
2022/01/26 12:56:30;;;;;;;100.15;46.60;;;4.60;99.90;;;;;;4954516;28;20050;-87
2022/01/26 12:59:02;;;;;;;93.78;46.45;;;4.50;99.90;;;;;;4922126;28;20156;-86
2022/01/26 13:01:28;;;;;;;99.05;46.47;;;4.50;99.90;;;;;;4946226;28;20509;-89
2022/01/26 13:03:59;;;;;;;102.65;46.88;;;4.60;99.90;;;;;;4935593;28;20158;-87
2022/01/26 13:06:31;;;;;;;104.60;48.30;;;4.60;99.90;;;;;;4965139;28;20041;-89
2022/01/26 13:09:13;;;;;;;101.25;47.40;;;4.60;99.90;;;;;;4944303;28;20217;-89
2022/01/26 13:11:39;;;;;;;94.50;46.17;;;4.70;99.90;;;;;;4950743;28;20075;-90
2022/01/26 13:14:17;;;;;;;99.43;47.35;;;4.70;99.90;;;;;;4972317;28;20053;-88
2022/01/26 13:17:12;;;;;;;91.22;44.38;;;4.70;99.90;;;;;;4929024;28;20602;-87
2022/01/26 13:36:23;;;;;;;97.75;44.80;;;4.70;99.90;;;;;;4936013;28;20090;-89
2022/01/26 13:41:34;;;;;;;89.53;43.08;;;4.70;99.90;;;;;;4935428;28;20159;-89
2022/01/26 13:52:41;;;;;;;90.75;43.10;;;4.80;99.90;;;;;;4898459;28;20049;-88
2022/01/26 14:00:26;;;;;;;90.93;41.47;;;4.80;99.90;;;;;;4927538;28;20064;-88
2022/01/26 14:02:57;;;;;;;91.38;44.25;;;4.80;99.90;;;;;;4916176;28;20393;-88
2022/01/26 14:05:23;;;;;;;93.63;43.70;;;4.80;99.90;;;;;;4939899;28;20071;-89
2022/01/26 14:07:50;;;;;;;89.53;44.45;;;4.90;99.90;;;;;;4929255;28;20667;-87
2022/01/26 14:10:16;;;;;;;89.55;41.72;;;4.80;99.90;;;;;;4901746;28;20081;-86
2022/01/26 14:12:46;;;;;;;90.22;43.78;;;4.90;99.90;;;;;;4898927;28;20046;-88
2022/01/26 14:15:12;;;;;;;93.68;42.95;;;4.80;99.90;;;;;;4900318;28;20112;-87
2022/01/26 14:17:57;;;;;;;90.63;42.60;;;4.80;99.90;;;;;;4928040;28;20161;-87
2022/01/26 14:25:46;;;;;;;82.70;42.72;;;4.90;99.90;;;;;;4927603;28;20540;-87
2022/01/26 14:28:15;;;;;;;87.05;41.65;;;4.80;99.90;;;;;;4942853;28;20081;-89
2022/01/26 14:36:18;;;;;;;87.90;41.60;;;4.80;99.90;;;;;;4933420;28;20657;-87
2022/01/26 14:55:29;;;;;;;85.63;39.65;;;4.80;99.90;;;;;;4922571;28;20481;-89
2022/01/26 15:30:14;;;;;;;78.97;36.75;;;4.80;99.90;;;;;;4936666;28;20041;-90
2022/01/26 15:51:52;;;;;;;72.22;35.15;;;4.80;99.90;;;;;;4887003;28;20866;-90
2022/01/26 15:57:37;;;;;;;77.75;36.58;;;4.90;99.90;;;;;;4939145;28;20536;-92
2022/01/26 16:26:15;;;;;;;66.53;34.97;;;4.90;99.90;;;;;;4931519;28;20168;-88
2022/01/26 16:28:18;;;;;;;69.18;33.92;;;5.00;99.90;;;;;;4933592;28;20045;-88
2022/01/26 16:52:41;;;;;;;74.68;36.40;;;5.00;99.90;;;;;;4931641;28;20056;-89
2022/01/26 17:12:40;;;;;;;78.28;40.22;;;4.90;99.90;;;;;;4934006;28;20568;-89
2022/01/26 17:26:52;;;;;;;83.47;41.85;;;4.90;99.90;;;;;;4933414;28;20271;-88
2022/01/26 18:46:21;;;;;;;76.05;40.08;;;5.10;99.90;;;;;;4946291;28;20123;-87
2022/01/26 18:49:13;;;;;;;86.10;40.60;;;5.10;99.90;;;;;;4934073;28;20052;-88
2022/01/26 18:51:43;;;;;;;80.63;41.38;;;5.10;99.90;;;;;;4940462;28;20203;-89
2022/01/26 18:54:13;;;;;;;82.60;42.80;;;5.10;99.90;;;;;;4943493;28;20076;-89
2022/01/26 18:56:41;;;;;;;79.95;41.28;;;5.10;99.90;;;;;;4944416;28;20080;-88
2022/01/26 18:59:08;;;;;;;81.15;41.67;;;5.20;99.90;;;;;;4917994;28;20049;-89
2022/01/26 19:01:35;;;;;;;84.07;41.97;;;5.20;99.90;;;;;;4924625;28;20049;-90
2022/01/26 19:04:01;;;;;;;75.63;41.33;;;5.20;99.90;;;;;;4932442;28;20049;-88
2022/01/26 19:06:29;;;;;;;77.10;42.05;;;5.20;99.90;;;;;;4920879;28;20139;-89
2022/01/26 19:08:55;;;;;;;80.22;41.15;;;5.20;99.90;;;;;;4946086;28;20048;-88
2022/01/26 19:11:24;;;;;;;78.25;42.70;;;5.20;99.90;;;;;;4943506;28;20493;-89
2022/01/26 19:13:51;;;;;;;77.25;41.53;;;5.20;99.90;;;;;;4935360;28;20106;-90
2022/01/26 19:16:33;;;;;;;81.18;42.40;;;5.20;99.90;;;;;;4923467;28;20595;-88
2022/01/26 19:51:19;;;;;;;75.13;42.92;;;5.30;99.90;;;;;;4938043;28;20183;-89
2022/01/26 19:53:45;;;;;;;77.43;44.03;;;5.30;99.90;;;;;;4956905;28;20433;-90
2022/01/26 19:56:11;;;;;;;69.13;40.13;;;5.30;99.90;;;;;;4917913;28;20246;-88
2022/01/26 19:58:37;;;;;;;71.22;40.95;;;5.30;99.90;;;;;;4932787;28;20041;-90
2022/01/26 20:01:05;;;;;;;68.22;42.03;;;5.40;99.90;;;;;;4943305;28;20383;-87
2022/01/26 20:03:34;;;;;;;71.22;40.47;;;5.40;99.90;;;;;;4947793;28;20490;-88
2022/01/26 20:06:00;;;;;;;68.18;40.17;;;5.40;99.90;;;;;;4934155;28;20041;-89
2022/01/26 20:08:36;;;;;;;66.68;39.92;;;5.50;99.90;;;;;;4952470;28;20509;-91